createdAt,value
2018-06-30T00:01:45.242Z,2.30
2018-06-30T00:04:16.163Z,2.20
2018-06-30T00:06:44.088Z,2.30
2018-06-30T00:09:11.960Z,2.10
2018-06-30T00:11:39.920Z,1.80
2018-06-30T00:14:07.873Z,2.20
2018-06-30T00:16:35.773Z,2.30
2018-06-30T00:19:03.684Z,1.87
2018-06-30T00:21:31.585Z,2.40
2018-06-30T00:23:59.452Z,2.13
2018-06-30T00:26:27.481Z,2.60
2018-06-30T00:28:55.509Z,2.27
2018-06-30T00:31:23.392Z,2.43
2018-06-30T00:33:51.310Z,2.53
2018-06-30T00:36:19.163Z,2.00
2018-06-30T00:38:47.097Z,2.60
2018-06-30T00:41:15.018Z,2.37
2018-06-30T00:43:42.820Z,2.27
2018-06-30T00:46:10.713Z,2.60
2018-06-30T00:48:38.662Z,2.33
2018-06-30T00:51:06.885Z,2.27
2018-06-30T00:53:34.800Z,2.73
2018-06-30T00:56:02.700Z,2.10
2018-06-30T00:58:30.626Z,2.63
2018-06-30T01:00:58.552Z,2.60
2018-06-30T01:03:26.535Z,2.50
2018-06-30T01:05:54.611Z,2.60
2018-06-30T01:08:22.456Z,2.40
2018-06-30T01:10:50.397Z,2.43
2018-06-30T01:13:18.534Z,2.43
2018-06-30T01:15:46.452Z,3.00
2018-06-30T01:18:14.313Z,2.63
2018-06-30T01:20:43.104Z,2.30
2018-06-30T01:23:11.199Z,2.60
2018-06-30T01:25:39.356Z,2.23
2018-06-30T01:28:07.181Z,2.40
2018-06-30T01:30:35.001Z,2.70
2018-06-30T01:33:02.855Z,2.83
2018-06-30T01:35:30.816Z,2.30
2018-06-30T01:37:58.903Z,2.33
2018-06-30T01:40:26.891Z,2.73
2018-06-30T01:42:55.009Z,2.80
2018-06-30T01:45:22.933Z,2.70
2018-06-30T01:47:50.867Z,2.90
2018-06-30T01:50:18.807Z,2.90
2018-06-30T01:52:46.669Z,2.87
2018-06-30T01:55:14.578Z,2.87
2018-06-30T01:57:42.458Z,2.70
2018-06-30T02:00:10.457Z,2.97
2018-06-30T02:02:38.326Z,3.20
2018-06-30T02:05:06.251Z,3.13
2018-06-30T02:07:34.149Z,3.07
2018-06-30T02:10:02.112Z,2.77
2018-06-30T02:12:30.025Z,2.90
2018-06-30T02:14:58.028Z,3.17
2018-06-30T02:17:26.230Z,2.80
2018-06-30T02:19:54.120Z,3.70
2018-06-30T02:22:22.057Z,3.00
2018-06-30T02:24:49.945Z,3.47
2018-06-30T02:27:17.774Z,3.10
2018-06-30T02:29:45.645Z,2.90
2018-06-30T02:32:13.603Z,3.30
2018-06-30T02:34:41.481Z,3.30
2018-06-30T02:37:09.394Z,3.63
2018-06-30T02:39:37.296Z,3.10
2018-06-30T02:42:05.241Z,3.33
2018-06-30T02:44:33.125Z,2.80
2018-06-30T02:47:00.993Z,3.10
2018-06-30T02:49:28.922Z,3.30
2018-06-30T02:51:56.785Z,3.33
2018-06-30T02:54:24.747Z,3.33
2018-06-30T02:56:52.653Z,3.23
2018-06-30T02:59:20.902Z,3.40
2018-06-30T03:01:49.101Z,3.40
2018-06-30T03:04:16.948Z,3.40
2018-06-30T03:06:44.799Z,3.90
2018-06-30T03:09:12.673Z,3.37
2018-06-30T03:11:40.801Z,3.17
2018-06-30T03:14:08.707Z,3.13
2018-06-30T03:16:39.155Z,3.53
2018-06-30T03:19:07.192Z,3.27
2018-06-30T03:21:35.200Z,3.40
2018-06-30T03:24:03.109Z,3.43
2018-06-30T03:26:31.034Z,3.10
2018-06-30T03:28:58.875Z,3.33
2018-06-30T03:31:26.763Z,3.50
2018-06-30T03:33:54.602Z,3.43
2018-06-30T03:36:22.604Z,3.00
2018-06-30T03:38:50.442Z,3.80
2018-06-30T03:41:18.402Z,3.43
2018-06-30T03:43:46.277Z,3.57
2018-06-30T03:46:14.170Z,3.33
2018-06-30T03:48:42.005Z,3.20
2018-06-30T03:51:09.888Z,3.20
2018-06-30T03:53:37.762Z,3.70
2018-06-30T03:56:05.789Z,3.50
2018-06-30T03:58:33.673Z,3.67
2018-06-30T04:01:01.562Z,4.07
2018-06-30T04:03:29.526Z,3.60
2018-06-30T04:05:57.369Z,3.13
2018-06-30T04:08:25.263Z,3.67
2018-06-30T04:10:53.157Z,3.80
2018-06-30T04:13:21.090Z,3.60
2018-06-30T04:15:49.009Z,3.90
2018-06-30T04:18:16.969Z,3.70
2018-06-30T04:20:44.888Z,3.40
2018-06-30T04:23:12.767Z,4.20
2018-06-30T04:25:40.630Z,3.70
2018-06-30T04:28:08.597Z,3.97
2018-06-30T04:30:36.461Z,4.20
2018-06-30T04:33:05.000Z,3.93
2018-06-30T04:35:32.885Z,3.67
2018-06-30T04:38:00.741Z,3.87
2018-06-30T04:40:28.594Z,4.07
2018-06-30T04:42:56.536Z,4.03
2018-06-30T04:45:24.398Z,4.23
2018-06-30T04:47:52.200Z,4.07
2018-06-30T04:50:20.121Z,4.00
2018-06-30T04:52:47.921Z,4.13
2018-06-30T04:55:15.889Z,3.83
2018-06-30T04:57:43.842Z,3.97
2018-06-30T05:00:11.674Z,3.73
2018-06-30T05:02:39.585Z,3.50
2018-06-30T05:05:07.481Z,4.27
2018-06-30T05:07:35.540Z,3.67
2018-06-30T05:10:04.084Z,3.43
2018-06-30T05:12:31.925Z,3.90
2018-06-30T05:14:59.810Z,3.83
2018-06-30T05:17:27.972Z,3.20
2018-06-30T05:19:55.902Z,3.73
2018-06-30T05:22:23.849Z,3.90
2018-06-30T05:24:51.732Z,3.50
2018-06-30T05:27:19.557Z,3.33
2018-06-30T05:29:47.453Z,4.07
2018-06-30T05:32:15.378Z,3.53
2018-06-30T05:34:43.222Z,3.20
2018-06-30T05:37:11.074Z,3.20
2018-06-30T05:39:38.930Z,3.70
2018-06-30T05:42:06.828Z,3.83
2018-06-30T05:44:34.884Z,3.30
2018-06-30T05:47:02.765Z,3.07
2018-06-30T05:49:30.609Z,3.30
2018-06-30T05:51:58.477Z,3.20
2018-06-30T05:54:26.423Z,3.00
2018-06-30T05:56:54.304Z,3.33
2018-06-30T05:59:23.920Z,3.47
2018-06-30T06:01:51.881Z,3.60
2018-06-30T06:04:20.273Z,3.77
2018-06-30T06:06:48.224Z,3.80
2018-06-30T06:09:16.073Z,3.27
2018-06-30T06:11:43.937Z,3.27
2018-06-30T06:14:11.782Z,3.33
2018-06-30T06:16:39.613Z,3.40
2018-06-30T06:19:08.137Z,3.57
2018-06-30T06:21:36.149Z,4.07
2018-06-30T06:24:04.406Z,4.00
2018-06-30T06:26:32.395Z,3.00
2018-06-30T06:29:00.233Z,3.40
2018-06-30T06:31:28.156Z,3.23
2018-06-30T06:33:56.063Z,3.50
2018-06-30T06:36:24.012Z,3.77
2018-06-30T06:38:51.968Z,3.57
2018-06-30T06:41:20.144Z,3.60
2018-06-30T06:43:48.062Z,3.53
2018-06-30T06:46:15.957Z,3.67
2018-06-30T06:48:44.033Z,3.43
2018-06-30T06:51:11.922Z,3.93
2018-06-30T06:53:39.789Z,3.30
2018-06-30T06:56:07.673Z,3.20
2018-06-30T06:58:35.537Z,3.33
2018-06-30T07:01:04.153Z,3.90
2018-06-30T07:03:31.997Z,4.20
2018-06-30T07:05:59.941Z,3.57
2018-06-30T07:08:27.829Z,4.10
2018-06-30T07:10:55.713Z,3.30
2018-06-30T07:13:23.761Z,3.93
2018-06-30T07:15:51.675Z,4.10
2018-06-30T07:18:19.580Z,3.30
2018-06-30T07:20:47.508Z,3.73
2018-06-30T07:23:15.403Z,3.77
2018-06-30T07:25:43.301Z,3.80
2018-06-30T07:28:11.229Z,3.57
2018-06-30T07:30:39.183Z,3.73
2018-06-30T07:33:07.265Z,3.33
2018-06-30T07:35:35.169Z,4.33
2018-06-30T07:38:03.329Z,3.43
2018-06-30T07:40:31.272Z,3.47
2018-06-30T07:42:59.192Z,3.70
2018-06-30T07:45:27.059Z,3.53
2018-06-30T07:47:55.601Z,4.10
2018-06-30T07:50:23.591Z,4.40
2018-06-30T07:52:51.451Z,3.77
2018-06-30T07:55:19.391Z,4.20
2018-06-30T07:57:47.201Z,4.13
2018-06-30T08:00:15.169Z,3.77
2018-06-30T08:02:43.109Z,3.97
2018-06-30T08:05:11.037Z,4.07
2018-06-30T08:07:38.903Z,4.33
2018-06-30T08:10:06.837Z,3.90
2018-06-30T08:12:34.700Z,4.00
2018-06-30T08:15:02.575Z,4.23
2018-06-30T08:17:30.485Z,3.53
2018-06-30T08:19:58.476Z,3.60
2018-06-30T08:22:26.362Z,3.80
2018-06-30T08:24:54.239Z,3.53
2018-06-30T08:27:22.200Z,4.10
2018-06-30T08:29:50.180Z,3.23
2018-06-30T08:32:18.146Z,3.87
2018-06-30T08:34:46.057Z,3.30
2018-06-30T08:37:14.242Z,3.60
2018-06-30T08:39:42.120Z,3.43
2018-06-30T08:42:10.017Z,3.47
2018-06-30T08:44:37.998Z,3.40
2018-06-30T08:47:05.898Z,3.20
2018-06-30T08:49:34.249Z,3.20
2018-06-30T08:52:02.578Z,3.00
2018-06-30T08:54:31.107Z,3.37
2018-06-30T08:56:59.037Z,2.90
2018-06-30T08:59:26.929Z,3.17
2018-06-30T09:01:54.842Z,3.20
2018-06-30T09:04:22.726Z,3.03
2018-06-30T09:06:51.792Z,2.83
2018-06-30T09:09:19.709Z,3.23
2018-06-30T09:11:54.409Z,3.30
2018-06-30T09:14:27.820Z,3.10
2018-06-30T09:16:55.790Z,3.17
2018-06-30T09:19:23.861Z,3.03
2018-06-30T09:21:53.330Z,3.43
2018-06-30T09:24:21.293Z,3.27
2018-06-30T09:26:49.184Z,3.10
2018-06-30T09:29:17.033Z,3.10
2018-06-30T09:31:44.896Z,2.63
2018-06-30T09:34:12.863Z,2.90
2018-06-30T09:36:40.670Z,2.43
2018-06-30T09:39:10.012Z,2.90
2018-06-30T09:41:38.205Z,3.00
2018-06-30T09:44:06.632Z,2.97
2018-06-30T09:46:34.737Z,2.40
2018-06-30T09:49:02.590Z,2.67
2018-06-30T09:51:30.472Z,2.60
2018-06-30T09:53:58.420Z,2.73
2018-06-30T09:56:26.273Z,2.40
2018-06-30T09:58:54.181Z,2.47
2018-06-30T10:01:22.065Z,2.17
2018-06-30T10:03:49.925Z,2.50
2018-06-30T10:06:17.845Z,2.90
2018-06-30T10:08:45.789Z,2.20
2018-06-30T10:11:13.669Z,2.20
2018-06-30T10:13:41.485Z,2.57
2018-06-30T10:16:09.355Z,2.40
2018-06-30T10:18:37.225Z,2.40
2018-06-30T10:21:05.208Z,2.33
2018-06-30T10:23:33.050Z,2.30
2018-06-30T10:26:00.972Z,2.40
2018-06-30T10:28:28.821Z,2.37
2018-06-30T10:30:56.663Z,2.50
2018-06-30T10:33:24.480Z,2.63
2018-06-30T10:35:52.372Z,2.50
2018-06-30T10:38:20.185Z,2.50
2018-06-30T10:40:48.106Z,2.60
2018-06-30T10:43:15.933Z,2.87
2018-06-30T10:45:43.814Z,2.33
2018-06-30T10:48:11.710Z,2.58
2018-06-30T10:50:39.601Z,2.67
2018-06-30T10:53:07.461Z,2.20
2018-06-30T10:55:35.328Z,2.45
2018-06-30T10:58:03.340Z,2.12
2018-06-30T11:00:31.522Z,2.40
2018-06-30T11:02:59.260Z,2.70
2018-06-30T11:05:27.161Z,2.47
2018-06-30T11:07:55.338Z,2.60
2018-06-30T11:10:23.189Z,2.35
2018-06-30T11:12:51.049Z,2.30
2018-06-30T11:15:19.068Z,2.35
2018-06-30T11:17:46.980Z,2.80
2018-06-30T11:20:15.001Z,2.80
2018-06-30T11:22:42.802Z,2.80
2018-06-30T11:25:10.663Z,2.33
2018-06-30T11:27:38.591Z,2.95
2018-06-30T11:30:06.542Z,2.30
2018-06-30T11:32:34.853Z,2.70
2018-06-30T11:35:02.815Z,3.22
2018-06-30T11:37:31.253Z,3.40
2018-06-30T11:39:59.109Z,3.30
2018-06-30T11:42:27.045Z,3.02
2018-06-30T11:44:55.006Z,3.10
2018-06-30T11:47:22.925Z,3.47
2018-06-30T11:49:50.745Z,3.27
2018-06-30T11:52:20.943Z,3.55
2018-06-30T11:54:53.324Z,3.55
2018-06-30T11:57:25.604Z,3.60
2018-06-30T11:59:55.287Z,3.58
2018-06-30T12:02:28.017Z,3.60
2018-06-30T12:04:57.984Z,3.40
2018-06-30T12:07:25.884Z,3.80
2018-06-30T12:09:54.796Z,3.75
2018-06-30T12:12:22.688Z,3.83
2018-06-30T12:14:50.582Z,3.65
2018-06-30T12:17:18.520Z,3.83
2018-06-30T12:19:46.433Z,4.03
2018-06-30T12:22:14.326Z,3.65
2018-06-30T12:24:42.198Z,4.12
2018-06-30T12:27:10.180Z,3.50
2018-06-30T12:29:37.970Z,3.75
2018-06-30T12:32:05.890Z,4.10
2018-06-30T12:34:33.758Z,3.83
2018-06-30T12:37:01.666Z,3.70
2018-06-30T12:39:29.520Z,4.33
2018-06-30T12:41:57.453Z,4.17
2018-06-30T12:44:25.298Z,3.98
2018-06-30T12:46:53.175Z,4.17
2018-06-30T12:49:21.047Z,3.62
2018-06-30T12:51:49.017Z,3.87
2018-06-30T12:54:16.969Z,3.83
2018-06-30T12:56:44.837Z,3.92
2018-06-30T12:59:12.721Z,3.50
2018-06-30T13:01:40.610Z,3.15
2018-06-30T13:04:08.572Z,3.80
2018-06-30T13:06:36.461Z,4.10
2018-06-30T13:09:09.519Z,3.80
2018-06-30T13:11:37.413Z,3.77
2018-06-30T13:14:05.967Z,4.30
2018-06-30T13:16:34.213Z,4.20
2018-06-30T13:19:02.263Z,3.52
2018-06-30T13:21:30.145Z,3.90
2018-06-30T13:23:58.079Z,3.72
2018-06-30T13:26:26.029Z,3.67
2018-06-30T13:28:53.922Z,4.20
2018-06-30T13:31:21.769Z,4.15
2018-06-30T13:33:49.622Z,4.08
2018-06-30T13:36:17.554Z,3.95
2018-06-30T13:38:45.453Z,4.33
2018-06-30T13:41:13.377Z,4.47
2018-06-30T13:43:41.332Z,3.80
2018-06-30T13:46:09.483Z,4.43
2018-06-30T13:48:37.377Z,4.80
2018-06-30T13:51:05.361Z,3.77
2018-06-30T13:53:33.241Z,4.03
2018-06-30T13:56:01.169Z,3.90
2018-06-30T13:58:29.087Z,3.73
2018-06-30T14:00:57.037Z,4.37
2018-06-30T14:03:24.882Z,4.30
2018-06-30T14:05:52.762Z,4.70
2018-06-30T14:08:20.653Z,5.20
2018-06-30T14:10:48.509Z,4.10
2018-06-30T14:13:16.786Z,4.50
2018-06-30T14:15:44.754Z,4.57
2018-06-30T14:18:12.676Z,4.73
2018-06-30T14:20:40.537Z,4.23
2018-06-30T14:23:08.401Z,3.97
2018-06-30T14:25:36.344Z,4.50
2018-06-30T14:28:04.420Z,4.70
2018-06-30T14:30:32.349Z,4.17
2018-06-30T14:33:00.197Z,3.67
2018-06-30T14:35:28.069Z,4.30
2018-06-30T14:37:56.022Z,4.10
2018-06-30T14:40:23.954Z,4.00
2018-06-30T14:42:51.773Z,4.17
2018-06-30T14:45:19.633Z,3.83
2018-06-30T14:47:47.706Z,3.90
2018-06-30T14:50:15.683Z,3.73
2018-06-30T14:52:43.653Z,3.27
2018-06-30T14:55:11.569Z,3.80
2018-06-30T14:57:39.416Z,3.67
2018-06-30T15:00:08.511Z,3.37
2018-06-30T15:02:36.566Z,4.10
2018-06-30T15:05:05.885Z,3.57
2018-06-30T15:07:33.805Z,3.50
2018-06-30T15:10:01.745Z,3.30
2018-06-30T15:12:29.657Z,3.10
2018-06-30T15:14:57.562Z,3.27
2018-06-30T15:17:25.453Z,3.00
2018-06-30T15:19:53.385Z,3.03
2018-06-30T15:22:21.282Z,3.50
2018-06-30T15:24:49.330Z,3.23
2018-06-30T15:27:17.430Z,3.43
2018-06-30T15:29:45.365Z,2.70
2018-06-30T15:32:13.237Z,2.60
2018-06-30T15:34:41.627Z,2.37
2018-06-30T15:37:09.525Z,2.90
2018-06-30T15:39:37.487Z,2.50
2018-06-30T15:42:05.525Z,2.43
2018-06-30T15:44:33.425Z,2.43
2018-06-30T15:47:01.445Z,2.60
2018-06-30T15:49:29.376Z,2.50
2018-06-30T15:51:57.341Z,2.40
2018-06-30T15:54:25.150Z,2.27
2018-06-30T15:56:53.229Z,2.10
2018-06-30T15:59:21.150Z,2.70
2018-06-30T16:01:48.987Z,2.37
2018-06-30T16:04:16.919Z,1.80
2018-06-30T16:06:44.823Z,1.87
2018-06-30T16:09:12.760Z,1.97
2018-06-30T16:11:40.953Z,1.87
2018-06-30T16:14:09.117Z,2.47
2018-06-30T16:16:37.613Z,1.63
2018-06-30T16:19:05.530Z,1.80
2018-06-30T16:21:33.497Z,1.73
2018-06-30T16:24:01.423Z,1.63
2018-06-30T16:26:29.385Z,1.90
2018-06-30T16:28:57.590Z,2.17
2018-06-30T16:31:25.469Z,1.33
2018-06-30T16:33:53.458Z,1.40
2018-06-30T16:36:21.753Z,1.50
2018-06-30T16:38:56.165Z,1.30
2018-06-30T16:41:30.394Z,1.60
2018-06-30T16:43:58.389Z,1.40
2018-06-30T16:46:26.213Z,1.40
2018-06-30T16:48:54.101Z,1.20
2018-06-30T16:51:21.989Z,1.50
2018-06-30T16:53:49.958Z,0.90
2018-06-30T16:56:17.994Z,1.43
2018-06-30T16:58:45.914Z,1.30
2018-06-30T17:01:13.783Z,0.93
2018-06-30T17:03:42.545Z,0.90
2018-06-30T17:06:11.133Z,1.00
2018-06-30T17:08:39.076Z,1.03
2018-06-30T17:11:07.014Z,1.10
2018-06-30T17:13:35.051Z,1.20
2018-06-30T17:16:02.992Z,0.80
2018-06-30T17:18:31.034Z,0.90
2018-06-30T17:20:59.037Z,0.90
2018-06-30T17:23:31.387Z,0.80
2018-06-30T17:25:59.623Z,0.80
2018-06-30T17:28:29.219Z,0.90
2018-06-30T17:30:57.213Z,0.70
2018-06-30T17:33:25.132Z,0.80
2018-06-30T17:35:52.965Z,0.80
2018-06-30T17:38:20.795Z,0.80
2018-06-30T17:40:48.713Z,0.70
2018-06-30T17:43:16.597Z,1.03
2018-06-30T17:45:44.492Z,1.00
2018-06-30T17:48:12.394Z,0.67
2018-06-30T17:50:40.509Z,1.17
2018-06-30T17:53:08.897Z,1.50
2018-06-30T17:55:37.977Z,1.20
2018-06-30T17:58:06.169Z,0.70
2018-06-30T18:00:34.049Z,1.00
2018-06-30T18:03:02.762Z,0.93
2018-06-30T18:05:30.582Z,0.50
2018-06-30T18:07:58.419Z,0.60
2018-06-30T18:10:26.340Z,0.70
2018-06-30T18:12:54.257Z,0.60
2018-06-30T18:15:22.297Z,0.90
2018-06-30T18:17:50.249Z,0.63
2018-06-30T18:20:18.631Z,0.70
2018-06-30T18:22:46.806Z,0.97
2018-06-30T18:25:14.692Z,0.93
2018-06-30T18:27:42.568Z,0.80
2018-06-30T18:30:10.505Z,0.80
2018-06-30T18:32:38.519Z,0.93
2018-06-30T18:35:07.137Z,0.50
2018-06-30T18:37:35.077Z,0.97
2018-06-30T18:40:03.504Z,0.70
2018-06-30T18:42:31.747Z,0.50
2018-06-30T18:44:59.869Z,0.60
2018-06-30T18:47:27.750Z,0.60
2018-06-30T18:49:55.643Z,0.77
2018-06-30T18:52:23.593Z,0.83
2018-06-30T18:54:51.449Z,0.70
2018-06-30T18:57:19.293Z,0.93
2018-06-30T18:59:47.193Z,0.57
2018-06-30T19:02:15.360Z,0.50
2018-06-30T19:04:44.190Z,1.10
2018-06-30T19:07:12.049Z,0.90
2018-06-30T19:09:40.410Z,0.80
2018-06-30T19:12:08.927Z,0.83
2018-06-30T19:14:36.818Z,0.70
2018-06-30T19:17:04.949Z,1.03
2018-06-30T19:19:32.806Z,0.90
2018-06-30T19:22:01.071Z,1.00
2018-06-30T19:24:31.598Z,1.30
2018-06-30T19:27:00.213Z,1.03
2018-06-30T19:29:28.320Z,1.23
2018-06-30T19:31:56.397Z,0.90
2018-06-30T19:34:25.203Z,1.00
2018-06-30T19:36:53.588Z,1.23
2018-06-30T19:39:21.520Z,1.50
2018-06-30T19:41:51.497Z,1.27
2018-06-30T19:44:23.340Z,1.03
2018-06-30T19:46:51.317Z,1.33
2018-06-30T19:49:19.577Z,1.07
2018-06-30T19:51:47.585Z,0.93
2018-06-30T19:54:15.483Z,1.40
2018-06-30T19:56:43.551Z,1.13
2018-06-30T19:59:15.268Z,0.83
2018-06-30T20:01:43.216Z,1.10
2018-06-30T20:04:12.377Z,0.90
2018-06-30T20:06:41.652Z,1.10
2018-06-30T20:09:11.292Z,1.00
2018-06-30T20:11:39.385Z,1.17
2018-06-30T20:14:13.910Z,1.00
2018-06-30T20:16:44.363Z,0.97
2018-06-30T20:19:12.699Z,0.83
2018-06-30T20:21:41.128Z,0.70
2018-06-30T20:24:09.036Z,0.83
2018-06-30T20:26:44.175Z,0.70
2018-06-30T20:29:14.722Z,0.90
2018-06-30T20:31:42.625Z,0.80
2018-06-30T20:34:10.578Z,0.63
2018-06-30T20:36:39.221Z,0.80
2018-06-30T20:39:09.990Z,1.03
2018-06-30T20:41:38.741Z,0.70
2018-06-30T20:44:07.538Z,0.70
2018-06-30T20:46:35.441Z,0.77
2018-06-30T20:49:03.860Z,1.00
2018-06-30T20:51:34.560Z,0.80
2018-06-30T20:54:02.575Z,1.50
2018-06-30T20:56:31.237Z,1.00
2018-06-30T20:58:59.165Z,0.73
2018-06-30T21:01:27.215Z,0.53
2018-06-30T21:03:55.007Z,0.77
2018-06-30T21:06:22.898Z,0.73
2018-06-30T21:08:50.826Z,1.10
2018-06-30T21:11:19.290Z,0.80
2018-06-30T21:13:47.138Z,0.60
2018-06-30T21:16:16.099Z,0.50
2018-06-30T21:18:44.354Z,0.90
2018-06-30T21:21:22.252Z,0.80
2018-06-30T21:23:51.309Z,0.60
2018-06-30T21:26:19.410Z,0.60
2018-06-30T21:28:47.365Z,0.63
2018-06-30T21:31:15.219Z,0.80
2018-06-30T21:33:43.092Z,0.70
2018-06-30T21:36:11.117Z,0.87
2018-06-30T21:38:39.085Z,1.00
2018-06-30T21:41:07.145Z,0.83
2018-06-30T21:43:34.989Z,0.60
2018-06-30T21:46:02.837Z,0.50
2018-06-30T21:48:30.722Z,0.70
2018-06-30T21:50:59.280Z,1.30
2018-06-30T21:53:27.739Z,1.00
2018-06-30T21:55:55.777Z,0.80
2018-06-30T21:58:23.640Z,1.00
2018-06-30T22:00:57.291Z,0.90
2018-06-30T22:03:26.478Z,1.00
2018-06-30T22:05:55.777Z,0.80
2018-06-30T22:08:26.559Z,0.70
2018-06-30T22:10:54.758Z,0.57
2018-06-30T22:13:22.853Z,0.60
2018-06-30T22:15:50.805Z,0.73
2018-06-30T22:18:18.916Z,1.00
2018-06-30T22:20:46.892Z,0.73
2018-06-30T22:23:14.744Z,0.80
2018-06-30T22:25:42.593Z,0.73
2018-06-30T22:28:10.501Z,0.60
2018-06-30T22:30:38.471Z,0.93
2018-06-30T22:33:06.312Z,0.57
2018-06-30T22:35:34.233Z,0.80
2018-06-30T22:38:02.129Z,0.93
2018-06-30T22:40:29.993Z,0.90
2018-06-30T22:42:57.954Z,0.60
2018-06-30T22:45:25.952Z,0.50
2018-06-30T22:47:53.875Z,1.03
2018-06-30T22:50:21.790Z,0.77
2018-06-30T22:52:49.756Z,0.37
2018-06-30T22:55:17.681Z,0.83
2018-06-30T22:57:45.585Z,0.80
2018-06-30T23:00:16.210Z,0.80
2018-06-30T23:02:44.149Z,0.80
2018-06-30T23:05:12.085Z,0.70
2018-06-30T23:07:40.064Z,0.80
2018-06-30T23:10:09.933Z,0.90
2018-06-30T23:12:37.921Z,0.50
2018-06-30T23:15:06.369Z,0.80
2018-06-30T23:17:34.271Z,0.80
2018-06-30T23:20:02.358Z,0.93
2018-06-30T23:23:08.054Z,0.80
2018-06-30T23:25:36.515Z,0.70
2018-06-30T23:28:04.561Z,0.73
2018-06-30T23:30:32.786Z,0.67
2018-06-30T23:33:00.685Z,0.87
2018-06-30T23:35:29.580Z,0.90
2018-06-30T23:37:58.554Z,0.80
2018-06-30T23:40:26.586Z,0.63
2018-06-30T23:42:54.570Z,0.83
2018-06-30T23:45:22.886Z,1.27
2018-06-30T23:47:51.633Z,0.80
2018-06-30T23:50:19.931Z,0.60
2018-06-30T23:52:47.930Z,0.50
2018-06-30T23:55:15.896Z,0.73
2018-06-30T23:57:43.841Z,0.60
